Time;durP1;ratioP1;P1;durP2;ratioP2;P2;SDS_P1;SDS_P2;PMS_P1;PMS_P2;Temp;Humidity;BMP_temperature;BMP_pressure;BME280_temperature;BME280_humidity;BME280_pressure;Samples;Min_cycle;Max_cycle;Signal;HPM_P1;HPM_P2
2021/06/11 00:00:08;;;;;;;1.63;1.52;;;21.80;57.00;;;;;;3096444;28;20088;-76
2021/06/11 00:01:40;;;;;;;1.85;1.67;;;21.80;57.00;;;;;;3097177;28;20515;-76
2021/06/11 00:03:11;;;;;;;1.98;1.80;;;21.80;57.00;;;;;;3097429;28;20062;-77
2021/06/11 00:04:42;;;;;;;1.67;1.58;;;21.80;57.00;;;;;;3097830;28;20527;-76
2021/06/11 00:06:14;;;;;;;1.60;1.50;;;21.80;57.00;;;;;;3096842;28;20562;-76
2021/06/11 00:07:45;;;;;;;1.70;1.60;;;21.80;57.00;;;;;;3096899;28;20071;-76
2021/06/11 00:09:17;;;;;;;1.70;1.60;;;21.80;57.00;;;;;;3097535;28;20519;-76
2021/06/11 00:10:48;;;;;;;2.00;1.65;;;21.80;57.00;;;;;;3097291;28;20085;-75
2021/06/11 00:12:19;;;;;;;1.73;1.63;;;21.80;57.00;;;;;;3096786;28;20514;-76
2021/06/11 00:13:51;;;;;;;1.48;1.38;;;21.80;57.00;;;;;;3097570;28;20100;-76
2021/06/11 00:15:23;;;;;;;1.50;1.40;;;21.80;57.00;;;;;;3096827;28;20664;-76
2021/06/11 00:16:54;;;;;;;1.80;1.70;;;21.80;57.10;;;;;;3096769;28;20042;-77
2021/06/11 00:18:25;;;;;;;2.03;1.50;;;21.80;57.00;;;;;;3097368;28;20201;-76
2021/06/11 00:19:56;;;;;;;1.95;1.60;;;21.80;57.00;;;;;;3097291;28;20066;-76
2021/06/11 00:21:26;;;;;;;1.70;1.60;;;21.80;57.00;;;;;;3097446;28;20073;-76
2021/06/11 00:22:57;;;;;;;1.48;1.38;;;21.80;57.00;;;;;;3096764;28;20046;-75
2021/06/11 00:24:28;;;;;;;1.70;1.50;;;21.80;57.00;;;;;;3097266;28;20058;-76
2021/06/11 00:25:59;;;;;;;1.67;1.45;;;21.80;57.00;;;;;;3097186;28;20057;-75
2021/06/11 00:27:30;;;;;;;1.77;1.67;;;21.80;57.00;;;;;;3096846;28;20065;-76
2021/06/11 00:29:02;;;;;;;1.67;1.58;;;21.80;57.00;;;;;;3097300;28;20054;-76
2021/06/11 00:30:33;;;;;;;1.70;1.60;;;21.80;57.00;;;;;;3096268;28;20770;-76
2021/06/11 00:32:05;;;;;;;1.48;1.38;;;21.80;57.00;;;;;;3096927;28;20039;-76
2021/06/11 00:33:36;;;;;;;1.63;1.50;;;21.80;57.00;;;;;;3097191;28;20046;-76
2021/06/11 00:35:07;;;;;;;1.83;1.67;;;21.80;57.00;;;;;;3097257;28;20054;-76
2021/06/11 00:36:39;;;;;;;1.50;1.40;;;21.80;57.00;;;;;;3096719;28;20057;-76
2021/06/11 00:38:10;;;;;;;1.50;1.40;;;21.80;57.00;;;;;;3097354;28;20435;-76
2021/06/11 00:39:40;;;;;;;1.50;1.40;;;21.80;57.00;;;;;;3096923;28;20046;-75
2021/06/11 00:41:11;;;;;;;1.58;1.48;;;21.80;57.00;;;;;;3097052;28;20125;-76
2021/06/11 00:42:42;;;;;;;1.50;1.40;;;21.80;57.00;;;;;;3096660;28;20047;-76
2021/06/11 00:44:14;;;;;;;2.65;1.58;;;21.80;57.00;;;;;;3097403;28;20046;-76
2021/06/11 00:45:45;;;;;;;1.45;1.35;;;21.80;57.00;;;;;;3096064;28;20077;-76
2021/06/11 00:47:17;;;;;;;1.65;1.55;;;21.80;57.00;;;;;;3096667;28;20415;-76
2021/06/11 00:48:48;;;;;;;1.70;1.60;;;21.80;57.00;;;;;;3097408;28;20084;-76
2021/06/11 00:50:20;;;;;;;1.58;1.48;;;21.80;57.00;;;;;;3096618;28;20134;-76
2021/06/11 00:51:51;;;;;;;1.67;1.58;;;21.80;57.00;;;;;;3096631;28;20075;-76
2021/06/11 00:53:22;;;;;;;1.60;1.50;;;21.80;57.00;;;;;;3097145;28;20077;-77
2021/06/11 00:54:53;;;;;;;1.90;1.80;;;21.80;57.00;;;;;;3097328;28;20078;-76
2021/06/11 00:56:24;;;;;;;1.80;1.70;;;21.80;57.00;;;;;;3096917;28;20102;-76
2021/06/11 00:57:55;;;;;;;1.60;1.50;;;21.80;57.00;;;;;;3096633;28;20503;-76
2021/06/11 00:59:28;;;;;;;1.70;1.40;;;21.80;57.00;;;;;;3097057;28;20522;-76
2021/06/11 01:00:59;;;;;;;1.45;1.35;;;21.80;57.00;;;;;;3096171;28;20078;-76
2021/06/11 01:02:30;;;;;;;1.48;1.38;;;21.80;57.00;;;;;;3096391;28;20066;-76
2021/06/11 01:04:01;;;;;;;1.73;1.63;;;21.80;57.00;;;;;;3097048;28;20078;-77
2021/06/11 01:05:32;;;;;;;1.33;1.23;;;21.80;56.90;;;;;;3096988;28;20078;-75
2021/06/11 01:07:03;;;;;;;1.65;1.55;;;21.80;57.00;;;;;;3096659;28;20041;-76
2021/06/11 01:08:35;;;;;;;1.80;1.67;;;21.80;57.00;;;;;;3096964;28;20652;-75
2021/06/11 01:10:07;;;;;;;1.60;1.50;;;21.80;57.00;;;;;;3096785;28;20053;-76
2021/06/11 01:11:38;;;;;;;1.58;1.48;;;21.80;57.00;;;;;;3096720;28;20050;-76
2021/06/11 01:13:09;;;;;;;1.83;1.40;;;21.80;57.00;;;;;;3096842;28;20497;-76
2021/06/11 01:14:42;;;;;;;1.77;1.67;;;21.80;57.00;;;;;;3097001;28;20086;-76
2021/06/11 01:16:13;;;;;;;;;;;21.80;56.90;;;;;;3096454;28;20507;-76
2021/06/11 01:17:44;;;;;;;1.98;1.55;;;21.80;57.00;;;;;;3097214;28;19922;-76
2021/06/11 01:19:15;;;;;;;1.38;1.27;;;21.80;57.00;;;;;;3099281;28;20054;-77
2021/06/11 01:20:46;;;;;;;1.60;1.50;;;21.80;57.00;;;;;;3099132;28;20078;-76
2021/06/11 01:22:21;;;;;;;1.48;1.38;;;21.80;57.00;;;;;;3099091;28;20500;-77
2021/06/11 01:24:14;;;;;;;1.70;1.60;;;21.80;57.00;;;;;;3123375;23;20189;-83
2021/06/11 01:25:50;;;;;;;1.95;1.70;;;21.80;57.00;;;;;;3106191;28;20042;-83
2021/06/11 01:27:22;;;;;;;1.67;1.58;;;21.80;56.90;;;;;;3111433;28;20054;-82
2021/06/11 01:28:54;;;;;;;1.65;1.55;;;21.80;57.00;;;;;;3112283;28;20074;-82
2021/06/11 01:30:25;;;;;;;2.05;1.67;;;21.80;57.00;;;;;;3108021;28;20058;-82
2021/06/11 01:31:58;;;;;;;1.70;1.60;;;21.80;57.00;;;;;;3099186;28;20050;-82
2021/06/11 01:33:30;;;;;;;1.90;1.60;;;21.80;57.00;;;;;;3099742;28;20065;-81
2021/06/11 01:35:02;;;;;;;2.35;1.60;;;21.80;56.90;;;;;;3100037;28;20101;-81
2021/06/11 01:36:36;;;;;;;1.75;1.65;;;21.80;57.00;;;;;;3099120;28;20057;-80
2021/06/11 01:38:08;;;;;;;1.95;1.77;;;21.80;57.00;;;;;;3099543;28;20442;-82
2021/06/11 01:39:40;;;;;;;1.80;1.70;;;21.80;57.00;;;;;;3099751;28;20074;-82
2021/06/11 01:41:12;;;;;;;2.08;1.88;;;21.80;57.00;;;;;;3099598;28;20475;-82
2021/06/11 01:42:46;;;;;;;1.90;1.80;;;21.80;56.90;;;;;;3099027;28;20086;-83
2021/06/11 01:44:18;;;;;;;1.90;1.70;;;21.80;56.90;;;;;;3099618;28;20050;-83
2021/06/11 01:45:48;;;;;;;1.80;1.70;;;21.80;56.90;;;;;;3098864;28;20104;-82
2021/06/11 01:47:19;;;;;;;1.55;1.45;;;21.80;56.90;;;;;;3099022;28;20042;-82
2021/06/11 01:48:50;;;;;;;1.63;1.52;;;21.80;56.90;;;;;;3099649;28;20080;-81
2021/06/11 01:50:23;;;;;;;1.67;1.58;;;21.80;56.90;;;;;;3099225;28;20587;-83
2021/06/11 01:51:55;;;;;;;1.70;1.60;;;21.80;57.00;;;;;;3099173;28;20090;-82
2021/06/11 01:53:26;;;;;;;1.70;1.60;;;21.80;56.90;;;;;;3099275;28;20101;-81
2021/06/11 01:54:57;;;;;;;1.73;1.63;;;21.80;57.00;;;;;;3099616;28;20486;-82
2021/06/11 01:56:28;;;;;;;1.58;1.48;;;21.80;56.90;;;;;;3099244;28;20123;-80
2021/06/11 01:58:00;;;;;;;2.00;1.80;;;21.70;56.90;;;;;;3111174;28;20107;-82
2021/06/11 01:59:32;;;;;;;1.70;1.60;;;21.80;56.90;;;;;;3111543;28;20108;-82
2021/06/11 02:01:02;;;;;;;1.60;1.50;;;21.80;56.90;;;;;;3102497;28;20499;-82
2021/06/11 02:02:34;;;;;;;1.50;1.40;;;21.80;56.90;;;;;;3098754;28;20042;-82
2021/06/11 02:04:05;;;;;;;2.50;1.80;;;21.80;57.00;;;;;;3099346;28;20478;-82
2021/06/11 02:05:35;;;;;;;1.67;1.58;;;21.80;57.00;;;;;;3099195;28;20090;-82
2021/06/11 02:07:09;;;;;;;1.85;1.75;;;21.80;57.00;;;;;;3098653;28;20743;-83
2021/06/11 02:08:41;;;;;;;1.80;1.70;;;21.80;57.00;;;;;;3099253;28;20046;-82
2021/06/11 02:10:12;;;;;;;1.63;1.52;;;21.80;56.90;;;;;;3099251;28;20078;-83
2021/06/11 02:11:43;;;;;;;1.60;1.50;;;21.80;56.90;;;;;;3098875;28;20092;-82
2021/06/11 02:13:15;;;;;;;1.55;1.45;;;21.80;57.00;;;;;;3099092;28;20526;-82
2021/06/11 02:14:47;;;;;;;1.65;1.50;;;21.80;56.90;;;;;;3099545;28;20050;-82
2021/06/11 02:16:18;;;;;;;1.65;1.55;;;21.80;56.90;;;;;;3098278;28;20427;-82
2021/06/11 02:17:50;;;;;;;2.03;1.77;;;21.80;57.00;;;;;;3098931;28;20081;-83
2021/06/11 02:19:21;;;;;;;1.67;1.58;;;21.80;56.90;;;;;;3099145;28;20085;-81
2021/06/11 02:20:52;;;;;;;1.95;1.77;;;21.80;56.90;;;;;;3099137;28;20112;-83
2021/06/11 02:22:23;;;;;;;1.60;1.50;;;21.80;56.90;;;;;;3098480;28;20045;-82
2021/06/11 02:23:54;;;;;;;1.70;1.60;;;21.80;56.90;;;;;;3099086;28;20090;-84
2021/06/11 02:25:26;;;;;;;1.70;1.60;;;21.80;56.90;;;;;;3099398;28;20514;-83
2021/06/11 02:26:57;;;;;;;1.73;1.63;;;21.80;56.90;;;;;;3098947;28;20070;-83
2021/06/11 02:28:29;;;;;;;1.73;1.63;;;21.80;56.90;;;;;;3099175;28;20054;-82
2021/06/11 02:30:00;;;;;;;1.80;1.70;;;21.80;56.90;;;;;;3098421;28;20136;-82
2021/06/11 02:31:32;;;;;;;2.00;1.80;;;21.80;56.90;;;;;;3097793;28;20100;-82
2021/06/11 02:33:04;;;;;;;1.93;1.60;;;21.80;56.90;;;;;;3099174;28;20089;-81
2021/06/11 02:34:35;;;;;;;1.70;1.60;;;21.80;56.90;;;;;;3099053;28;20144;-83
2021/06/11 02:36:05;;;;;;;1.80;1.70;;;21.80;56.80;;;;;;3098977;28;20514;-81
2021/06/11 02:37:36;;;;;;;2.05;1.70;;;21.80;56.90;;;;;;3098620;28;20056;-82
2021/06/11 02:39:08;;;;;;;1.83;1.70;;;21.80;56.90;;;;;;3099072;28;20133;-82
2021/06/11 02:40:39;;;;;;;1.80;1.70;;;21.80;56.80;;;;;;3098855;28;20046;-82
2021/06/11 02:42:09;;;;;;;1.80;1.60;;;21.80;56.90;;;;;;3098511;28;20550;-81
2021/06/11 02:43:42;;;;;;;1.83;1.73;;;21.80;56.90;;;;;;3099401;28;20046;-83
2021/06/11 02:45:14;;;;;;;1.75;1.65;;;21.80;56.90;;;;;;3098164;28;20051;-82
2021/06/11 02:46:47;;;;;;;1.65;1.55;;;21.80;57.00;;;;;;3098512;28;20054;-82
2021/06/11 02:48:20;;;;;;;2.08;1.88;;;21.80;57.00;;;;;;3098969;28;20078;-83
2021/06/11 02:49:53;;;;;;;1.88;1.60;;;21.70;56.90;;;;;;3099028;28;20136;-82
2021/06/11 02:51:27;;;;;;;1.75;1.65;;;21.70;56.90;;;;;;3098537;28;20054;-83
2021/06/11 02:53:00;;;;;;;1.63;1.52;;;21.70;56.90;;;;;;3098141;28;20078;-83
2021/06/11 02:54:33;;;;;;;1.58;1.45;;;21.80;57.00;;;;;;3098885;28;20219;-82
2021/06/11 02:56:07;;;;;;;1.95;1.83;;;21.80;56.90;;;;;;3098954;28;20221;-81
2021/06/11 02:57:43;;;;;;;1.80;1.70;;;21.80;56.90;;;;;;3098379;28;20572;-83
2021/06/11 02:59:18;;;;;;;1.90;1.80;;;21.80;56.90;;;;;;3098891;28;20058;-82
2021/06/11 03:00:49;;;;;;;1.73;1.63;;;21.70;56.80;;;;;;3098018;28;20042;-82
2021/06/11 03:02:21;;;;;;;1.92;1.73;;;21.80;57.00;;;;;;3098222;28;20415;-81
2021/06/11 03:03:52;;;;;;;1.90;1.70;;;21.80;56.90;;;;;;3098974;28;20078;-83
2021/06/11 03:05:24;;;;;;;2.13;1.92;;;21.70;56.90;;;;;;3098633;28;20054;-83
2021/06/11 03:06:55;;;;;;;3.47;1.92;;;21.80;57.00;;;;;;3098139;28;20467;-82
2021/06/11 03:08:28;;;;;;;1.80;1.70;;;21.70;56.90;;;;;;3098870;28;20050;-82
2021/06/11 03:10:02;;;;;;;1.90;1.80;;;21.80;57.00;;;;;;3098355;28;20104;-81
2021/06/11 03:11:38;;;;;;;1.92;1.80;;;21.70;56.90;;;;;;3098231;28;20448;-82
2021/06/11 03:13:09;;;;;;;1.90;1.80;;;21.80;56.90;;;;;;3099028;28;20050;-83
2021/06/11 03:14:41;;;;;;;1.77;1.67;;;21.70;56.90;;;;;;3098657;28;20132;-81
2021/06/11 03:16:12;;;;;;;1.70;1.60;;;21.80;56.90;;;;;;3097905;28;20073;-81
2021/06/11 03:17:44;;;;;;;2.13;1.92;;;21.80;57.00;;;;;;3098122;28;20606;-80
2021/06/11 03:19:17;;;;;;;3.33;1.75;;;21.80;56.90;;;;;;3098931;28;20050;-82
2021/06/11 03:20:48;;;;;;;1.80;1.70;;;21.70;56.90;;;;;;3098440;28;20423;-83
2021/06/11 03:22:19;;;;;;;1.95;1.85;;;21.70;56.90;;;;;;3097692;28;20076;-82
2021/06/11 03:23:53;;;;;;;1.95;1.80;;;21.70;56.90;;;;;;3098479;28;20049;-83
2021/06/11 03:25:26;;;;;;;1.75;1.65;;;21.70;56.90;;;;;;3098655;28;20090;-82
2021/06/11 03:26:59;;;;;;;1.73;1.63;;;21.80;56.90;;;;;;3098047;28;20069;-82
2021/06/11 03:28:32;;;;;;;1.80;1.70;;;21.80;57.00;;;;;;3098499;28;20284;-82
2021/06/11 03:30:08;;;;;;;2.13;1.80;;;21.70;56.80;;;;;;3098470;28;20063;-81
2021/06/11 03:31:41;;;;;;;1.80;1.70;;;21.80;56.90;;;;;;3098072;28;20074;-83
2021/06/11 03:33:14;;;;;;;2.00;1.80;;;21.80;56.90;;;;;;3098388;28;20183;-82
2021/06/11 03:34:45;;;;;;;1.73;1.60;;;21.70;56.90;;;;;;3098489;28;20186;-82
2021/06/11 03:36:18;;;;;;;1.80;1.70;;;21.80;56.90;;;;;;3098595;28;20078;-83
2021/06/11 03:37:50;;;;;;;1.77;1.67;;;21.80;56.90;;;;;;3097941;28;20097;-79
2021/06/11 03:39:23;;;;;;;2.00;1.90;;;21.80;57.00;;;;;;3098022;28;20078;-81
2021/06/11 03:40:54;;;;;;;1.90;1.80;;;21.80;56.90;;;;;;3097981;28;20535;-81
2021/06/11 03:42:25;;;;;;;2.10;1.90;;;21.80;57.00;;;;;;3097635;28;20074;-82
2021/06/11 03:43:56;;;;;;;1.70;1.60;;;21.70;56.90;;;;;;3099011;28;20104;-82
2021/06/11 03:45:28;;;;;;;2.10;1.90;;;21.80;56.90;;;;;;3098456;28;20534;-83
2021/06/11 03:47:00;;;;;;;1.83;1.67;;;21.80;56.90;;;;;;3098607;28;20116;-82
2021/06/11 03:48:31;;;;;;;1.70;1.60;;;21.70;56.90;;;;;;3098374;28;20458;-80
2021/06/11 03:50:03;;;;;;;2.00;1.90;;;21.80;56.90;;;;;;3098006;28;20089;-81
2021/06/11 03:51:34;;;;;;;2.47;1.70;;;21.80;56.90;;;;;;3097656;28;20514;-83
2021/06/11 03:53:05;;;;;;;1.75;1.65;;;21.80;56.80;;;;;;3098270;28;20100;-82
2021/06/11 03:54:36;;;;;;;1.80;1.70;;;21.70;56.90;;;;;;3098083;28;20482;-82
2021/06/11 03:56:07;;;;;;;1.80;1.70;;;21.70;56.80;;;;;;3098236;28;20431;-80
2021/06/11 03:57:38;;;;;;;2.03;1.90;;;21.80;56.90;;;;;;3097686;28;20073;-82
2021/06/11 03:59:09;;;;;;;2.05;1.85;;;21.70;56.80;;;;;;3098362;28;20054;-82
2021/06/11 04:00:43;;;;;;;1.88;1.77;;;21.80;56.90;;;;;;3097333;28;20125;-82
2021/06/11 04:02:15;;;;;;;2.20;2.00;;;21.80;56.90;;;;;;3097534;28;20117;-82
2021/06/11 04:03:46;;;;;;;1.98;1.70;;;21.70;56.90;;;;;;3097870;28;20138;-82
2021/06/11 04:05:17;;;;;;;1.60;1.50;;;21.70;57.50;;;;;;3098275;28;20098;-82
2021/06/11 04:06:50;;;;;;;1.65;1.55;;;21.70;56.80;;;;;;3097462;28;20050;-82
2021/06/11 04:08:21;;;;;;;1.70;1.60;;;21.70;56.90;;;;;;3098184;28;20050;-82
2021/06/11 04:09:53;;;;;;;1.90;1.80;;;21.70;56.80;;;;;;3097626;28;20052;-82
2021/06/11 04:11:27;;;;;;;1.60;1.50;;;21.80;56.90;;;;;;3098195;28;20088;-84
2021/06/11 04:13:00;;;;;;;2.28;2.08;;;21.80;56.90;;;;;;3097568;28;20093;-83
2021/06/11 04:14:42;;;;;;;1.63;1.52;;;21.70;56.80;;;;;;3097959;28;20054;-82
2021/06/11 04:16:18;;;;;;;1.83;1.73;;;21.80;56.80;;;;;;3097093;28;20070;-82
2021/06/11 04:17:51;;;;;;;1.95;1.83;;;21.70;56.90;;;;;;3097400;28;20054;-82
2021/06/11 04:19:24;;;;;;;1.83;1.73;;;21.70;56.90;;;;;;3098006;28;20502;-82
2021/06/11 04:20:58;;;;;;;1.80;1.70;;;21.80;57.00;;;;;;3097767;28;20077;-82
2021/06/11 04:22:31;;;;;;;2.10;1.90;;;21.80;56.90;;;;;;3097047;28;20072;-82
2021/06/11 04:24:04;;;;;;;1.70;1.60;;;21.70;56.80;;;;;;3097780;28;20047;-82
2021/06/11 04:25:35;;;;;;;2.38;1.80;;;21.70;56.80;;;;;;3097840;28;20058;-82
2021/06/11 04:27:07;;;;;;;1.88;1.77;;;21.80;56.90;;;;;;3097333;28;20046;-82
2021/06/11 04:28:37;;;;;;;1.92;1.73;;;21.80;56.90;;;;;;3097969;28;20078;-81
2021/06/11 04:30:09;;;;;;;2.10;1.90;;;21.80;56.90;;;;;;3096684;28;20054;-81
2021/06/11 04:31:42;;;;;;;2.05;1.83;;;21.70;56.80;;;;;;3097331;28;20093;-83
2021/06/11 04:33:20;;;;;;;1.90;1.80;;;21.70;56.80;;;;;;3097657;28;20506;-82
2021/06/11 04:34:54;;;;;;;2.00;1.80;;;21.70;56.90;;;;;;3097867;28;20042;-82
2021/06/11 04:36:26;;;;;;;2.33;2.13;;;21.70;56.80;;;;;;3097751;28;20112;-82
2021/06/11 04:37:57;;;;;;;2.38;2.17;;;21.80;56.90;;;;;;3097114;28;20090;-82
2021/06/11 04:39:27;;;;;;;2.80;1.98;;;21.70;56.90;;;;;;3097786;28;20054;-82
2021/06/11 04:40:58;;;;;;;2.30;1.95;;;21.70;56.90;;;;;;3097655;28;20057;-82
2021/06/11 04:42:29;;;;;;;2.03;1.80;;;21.70;56.90;;;;;;3096999;28;20082;-82
2021/06/11 04:44:03;;;;;;;2.30;2.00;;;21.70;56.90;;;;;;3097707;28;20085;-82
2021/06/11 04:45:34;;;;;;;2.03;1.90;;;21.70;56.90;;;;;;3096750;28;20041;-83
2021/06/11 04:47:06;;;;;;;2.20;2.00;;;21.70;56.90;;;;;;3097073;28;20077;-81
2021/06/11 04:48:37;;;;;;;2.28;2.10;;;21.70;56.90;;;;;;3098059;28;20050;-82
2021/06/11 04:50:09;;;;;;;2.00;1.80;;;21.70;56.90;;;;;;3097294;28;20519;-82
2021/06/11 04:51:40;;;;;;;2.35;1.90;;;21.70;56.90;;;;;;3097271;28;20097;-82
2021/06/11 04:53:11;;;;;;;2.20;2.00;;;21.70;56.90;;;;;;3097220;28;20081;-80
2021/06/11 04:54:42;;;;;;;2.03;1.92;;;21.70;56.90;;;;;;3097857;28;20081;-81
2021/06/11 04:56:13;;;;;;;1.92;1.83;;;21.70;56.90;;;;;;3097847;28;20594;-83
2021/06/11 04:57:44;;;;;;;2.28;2.08;;;21.70;56.90;;;;;;3097134;28;20077;-82
2021/06/11 04:59:16;;;;;;;2.42;2.22;;;21.70;57.00;;;;;;3097872;28;20133;-82
2021/06/11 05:00:48;;;;;;;2.30;2.10;;;21.70;57.00;;;;;;3096629;28;20475;-83
2021/06/11 05:02:20;;;;;;;2.20;2.00;;;21.70;57.00;;;;;;3097213;28;20042;-82
2021/06/11 05:03:51;;;;;;;2.20;2.00;;;21.70;57.00;;;;;;3097775;28;20078;-81
2021/06/11 05:05:22;;;;;;;2.80;2.20;;;21.70;57.60;;;;;;3098040;28;20069;-80
2021/06/11 05:06:53;;;;;;;2.13;1.92;;;21.70;57.00;;;;;;3097060;28;20062;-84
2021/06/11 05:08:24;;;;;;;1.95;1.85;;;21.70;57.00;;;;;;3097719;28;20069;-81
2021/06/11 05:09:55;;;;;;;3.13;2.10;;;21.70;57.00;;;;;;3097383;28;20078;-82
2021/06/11 05:11:26;;;;;;;2.85;2.33;;;21.70;57.00;;;;;;3097393;28;20408;-82
2021/06/11 05:12:57;;;;;;;2.22;2.03;;;21.70;57.00;;;;;;3096859;28;20070;-82
2021/06/11 05:14:28;;;;;;;2.67;2.08;;;21.80;57.00;;;;;;3097591;28;20089;-82
2021/06/11 05:15:59;;;;;;;2.20;2.00;;;21.70;57.00;;;;;;3097118;28;20545;-81
2021/06/11 05:17:31;;;;;;;2.10;2.00;;;21.70;57.00;;;;;;3096995;28;20078;-81
2021/06/11 05:19:03;;;;;;;2.22;2.03;;;21.70;57.00;;;;;;3097524;28;20081;-82
2021/06/11 05:20:34;;;;;;;2.58;2.38;;;21.80;57.10;;;;;;3097152;28;20050;-83
2021/06/11 05:22:05;;;;;;;2.38;2.17;;;21.80;57.10;;;;;;3097103;28;20073;-82
2021/06/11 05:23:36;;;;;;;2.35;2.15;;;21.70;57.00;;;;;;3097349;28;20046;-82
2021/06/11 05:25:08;;;;;;;1.90;1.80;;;21.70;57.00;;;;;;3097532;28;20081;-82
2021/06/11 05:26:39;;;;;;;2.40;2.13;;;21.80;57.10;;;;;;3097131;28;20129;-82
2021/06/11 05:28:10;;;;;;;2.83;2.30;;;21.80;57.10;;;;;;3097479;28;20484;-82
2021/06/11 05:29:41;;;;;;;2.53;2.28;;;21.80;57.10;;;;;;3097505;28;20084;-82
2021/06/11 05:31:12;;;;;;;2.70;2.50;;;21.80;57.00;;;;;;3096855;28;20051;-82
2021/06/11 05:32:45;;;;;;;2.00;1.90;;;21.80;57.00;;;;;;3097171;28;20094;-79
2021/06/11 05:34:16;;;;;;;3.40;2.40;;;21.80;57.10;;;;;;3097745;28;20057;-82
2021/06/11 05:35:46;;;;;;;2.50;2.30;;;21.80;57.10;;;;;;3097808;28;20057;-83
2021/06/11 05:37:17;;;;;;;2.80;2.30;;;21.80;57.10;;;;;;3096856;28;20045;-83
2021/06/11 05:38:48;;;;;;;2.30;2.10;;;21.80;57.10;;;;;;3097802;28;20082;-82
2021/06/11 05:40:19;;;;;;;2.70;2.50;;;21.80;57.10;;;;;;3097384;28;20522;-82
2021/06/11 05:41:51;;;;;;;2.50;2.30;;;21.80;57.10;;;;;;3096868;28;20499;-82
2021/06/11 05:43:22;;;;;;;3.05;2.60;;;21.80;57.10;;;;;;3097356;28;20104;-81
2021/06/11 05:44:52;;;;;;;2.50;2.30;;;21.80;57.10;;;;;;3097688;28;20074;-82
2021/06/11 05:46:23;;;;;;;2.83;2.50;;;21.80;57.10;;;;;;3096461;28;20105;-83
2021/06/11 05:47:55;;;;;;;2.78;2.45;;;21.80;57.10;;;;;;3097032;28;20079;-82
2021/06/11 05:49:26;;;;;;;2.70;2.50;;;21.80;57.20;;;;;;3097568;28;20129;-82
2021/06/11 05:50:57;;;;;;;3.10;2.47;;;21.80;57.20;;;;;;3097050;28;20073;-83
2021/06/11 05:52:28;;;;;;;3.00;2.70;;;21.80;57.20;;;;;;3096774;28;20046;-81
2021/06/11 05:54:00;;;;;;;2.50;2.30;;;21.80;57.10;;;;;;3097224;28;20525;-83
2021/06/11 05:55:31;;;;;;;2.80;2.60;;;21.80;57.20;;;;;;3097444;28;20054;-82
2021/06/11 05:57:02;;;;;;;2.70;2.50;;;21.80;57.10;;;;;;3096650;28;20066;-83
2021/06/11 05:58:33;;;;;;;2.85;2.55;;;21.80;57.20;;;;;;3097332;28;20078;-81
2021/06/11 06:00:06;;;;;;;2.70;2.50;;;21.80;57.10;;;;;;3097014;28;20100;-82
2021/06/11 06:01:37;;;;;;;2.67;2.22;;;21.80;57.20;;;;;;3108395;28;20054;-82
2021/06/11 06:03:09;;;;;;;2.95;2.75;;;21.80;57.20;;;;;;3109960;28;20073;-81
2021/06/11 06:04:40;;;;;;;2.47;2.28;;;21.80;57.20;;;;;;3110963;28;20536;-82
2021/06/11 06:06:11;;;;;;;3.10;2.80;;;21.80;57.20;;;;;;3112501;28;20042;-82
2021/06/11 06:07:42;;;;;;;4.50;2.70;;;21.80;57.30;;;;;;3111054;28;20493;-82
2021/06/11 06:09:13;;;;;;;2.92;2.63;;;21.80;57.30;;;;;;3111611;28;20084;-82
2021/06/11 06:10:44;;;;;;;2.75;2.55;;;21.80;57.30;;;;;;3111138;28;20073;-82
2021/06/11 06:12:15;;;;;;;2.78;2.58;;;21.80;57.30;;;;;;3111130;28;20173;-83
2021/06/11 06:13:46;;;;;;;2.50;2.30;;;21.80;57.30;;;;;;3111545;28;20122;-82
2021/06/11 06:15:17;;;;;;;2.88;2.50;;;21.80;57.30;;;;;;3110628;28;20073;-82
2021/06/11 06:16:48;;;;;;;3.05;2.55;;;21.80;57.30;;;;;;3110962;28;20042;-81
2021/06/11 06:18:20;;;;;;;3.78;2.85;;;21.80;57.30;;;;;;3111816;28;20081;-82
2021/06/11 06:19:51;;;;;;;2.70;2.50;;;21.80;57.90;;;;;;3111061;28;20074;-82
2021/06/11 06:21:23;;;;;;;2.67;2.47;;;21.80;57.30;;;;;;3111455;28;20046;-83
2021/06/11 06:22:54;;;;;;;2.88;2.50;;;21.80;57.30;;;;;;3110764;28;20108;-82
2021/06/11 06:24:25;;;;;;;2.63;2.42;;;21.80;57.30;;;;;;3111138;28;20073;-82
2021/06/11 06:25:57;;;;;;;2.78;2.53;;;21.80;57.30;;;;;;3111482;28;20478;-81
2021/06/11 06:27:28;;;;;;;2.90;2.70;;;21.80;57.30;;;;;;3110670;28;20076;-81
2021/06/11 06:28:59;;;;;;;3.08;2.38;;;21.80;57.30;;;;;;3111745;28;20081;-82
2021/06/11 06:30:30;;;;;;;2.80;2.60;;;21.80;57.30;;;;;;3110309;28;20068;-81
2021/06/11 06:32:03;;;;;;;2.65;2.42;;;21.90;57.40;;;;;;3110894;28;20073;-82
2021/06/11 06:33:36;;;;;;;2.88;2.58;;;21.80;57.40;;;;;;3111175;28;20123;-83
2021/06/11 06:35:08;;;;;;;2.88;2.67;;;21.80;57.40;;;;;;3111544;28;20073;-82
2021/06/11 06:36:39;;;;;;;2.85;2.38;;;21.80;57.40;;;;;;3110997;28;20053;-82
2021/06/11 06:38:13;;;;;;;2.80;2.60;;;21.80;57.40;;;;;;3111242;28;20078;-81
2021/06/11 06:39:44;;;;;;;3.30;2.70;;;21.80;57.40;;;;;;3110993;28;20060;-81
2021/06/11 06:41:17;;;;;;;3.42;2.60;;;21.80;57.40;;;;;;3111363;28;20698;-83
2021/06/11 06:42:48;;;;;;;3.25;2.55;;;21.80;57.40;;;;;;3110604;28;20057;-83
2021/06/11 06:44:19;;;;;;;2.65;2.45;;;21.80;57.40;;;;;;3111073;28;20081;-83
2021/06/11 06:45:50;;;;;;;2.42;2.17;;;21.80;57.40;;;;;;3110519;28;20053;-82
2021/06/11 06:47:21;;;;;;;2.50;2.30;;;21.80;57.50;;;;;;3110627;28;20473;-81
2021/06/11 06:48:53;;;;;;;2.65;2.30;;;21.80;57.40;;;;;;3110932;28;20093;-83
2021/06/11 06:50:24;;;;;;;2.88;2.45;;;21.80;57.40;;;;;;3110733;28;20077;-82
2021/06/11 06:51:55;;;;;;;2.53;2.33;;;21.80;57.40;;;;;;3110644;28;20092;-83
2021/06/11 06:53:26;;;;;;;2.90;2.33;;;21.80;57.30;;;;;;3110959;28;20081;-82
2021/06/11 06:54:57;;;;;;;2.35;2.15;;;21.80;57.50;;;;;;3111021;28;20085;-82
2021/06/11 06:56:29;;;;;;;2.58;2.30;;;21.90;57.40;;;;;;3110861;28;20054;-82
2021/06/11 06:58:00;;;;;;;2.70;2.50;;;21.90;57.40;;;;;;3110822;28;20465;-81
2021/06/11 06:59:31;;;;;;;3.53;2.38;;;21.90;57.40;;;;;;3110745;28;20089;-82
2021/06/11 07:01:01;;;;;;;2.35;2.15;;;21.80;57.40;;;;;;3110275;28;20057;-82
2021/06/11 07:02:32;;;;;;;2.42;2.22;;;21.80;57.50;;;;;;3110478;28;20038;-82
2021/06/11 07:04:05;;;;;;;2.60;2.40;;;21.90;57.50;;;;;;3111119;28;20592;-83
2021/06/11 07:05:35;;;;;;;2.72;2.40;;;21.80;57.40;;;;;;3110862;28;20462;-82
2021/06/11 07:07:11;;;;;;;2.67;2.47;;;21.90;57.40;;;;;;3110497;28;20042;-82
2021/06/11 07:08:42;;;;;;;2.28;2.08;;;21.80;57.40;;;;;;3111439;28;20072;-83
2021/06/11 07:10:13;;;;;;;2.50;2.30;;;21.80;57.40;;;;;;3110665;28;20056;-81
2021/06/11 07:11:44;;;;;;;2.22;2.10;;;21.80;57.40;;;;;;3110430;28;20046;-82
2021/06/11 07:13:15;;;;;;;2.40;2.20;;;21.80;57.40;;;;;;3110784;28;20096;-82
2021/06/11 07:14:46;;;;;;;2.20;2.00;;;21.90;57.40;;;;;;3110835;28;20129;-82
2021/06/11 07:16:17;;;;;;;3.17;2.30;;;21.90;57.40;;;;;;3109668;28;20081;-83
2021/06/11 07:17:48;;;;;;;2.78;2.17;;;21.80;57.40;;;;;;3110094;28;20779;-83
2021/06/11 07:19:21;;;;;;;2.47;2.22;;;21.90;57.40;;;;;;3111043;28;20105;-83
2021/06/11 07:20:51;;;;;;;1.98;1.88;;;21.90;57.40;;;;;;3112236;28;20074;-83
2021/06/11 07:22:23;;;;;;;2.80;2.30;;;21.90;57.30;;;;;;3110258;28;20084;-83
2021/06/11 07:23:54;;;;;;;2.60;2.40;;;21.90;57.40;;;;;;3111020;28;20050;-82
2021/06/11 07:25:25;;;;;;;2.00;1.90;;;21.90;57.30;;;;;;3110916;28;20050;-83
2021/06/11 07:26:55;;;;;;;1.92;1.83;;;21.80;57.30;;;;;;3110226;28;20100;-83
2021/06/11 07:28:27;;;;;;;2.08;1.98;;;21.90;57.40;;;;;;3110608;28;20123;-82
2021/06/11 07:29:58;;;;;;;2.60;2.13;;;21.80;57.40;;;;;;3110709;28;20050;-83
2021/06/11 07:31:29;;;;;;;2.30;2.10;;;21.90;57.40;;;;;;3109518;28;20097;-81
2021/06/11 07:33:00;;;;;;;2.13;2.03;;;21.80;57.40;;;;;;3110107;28;20497;-83
2021/06/11 07:34:33;;;;;;;1.80;1.70;;;21.80;57.40;;;;;;3110643;28;20061;-82
2021/06/11 07:36:04;;;;;;;1.90;1.80;;;21.80;57.40;;;;;;3110589;28;20581;-82
2021/06/11 07:37:36;;;;;;;2.42;2.17;;;21.80;57.40;;;;;;3111271;28;20069;-82
2021/06/11 07:39:07;;;;;;;2.35;2.15;;;21.90;57.40;;;;;;3111762;28;20483;-82
2021/06/11 07:40:38;;;;;;;2.13;1.80;;;21.90;57.40;;;;;;3110648;28;20108;-81
2021/06/11 07:42:11;;;;;;;2.22;1.90;;;21.90;57.30;;;;;;3110653;28;20124;-83
2021/06/11 07:43:42;;;;;;;2.40;2.20;;;21.90;57.30;;;;;;3111596;28;20419;-82
2021/06/11 07:45:13;;;;;;;2.40;2.20;;;21.90;57.40;;;;;;3111840;28;20088;-81
2021/06/11 07:46:44;;;;;;;3.72;2.10;;;21.80;57.30;;;;;;3114042;28;20153;-84
2021/06/11 07:48:16;;;;;;;2.10;1.70;;;21.90;57.40;;;;;;3113951;28;20089;-82
2021/06/11 07:49:48;;;;;;;2.20;2.00;;;21.90;57.40;;;;;;3110590;28;20080;-82
2021/06/11 07:51:20;;;;;;;2.40;2.20;;;21.90;57.40;;;;;;3111398;28;20103;-83
2021/06/11 07:52:51;;;;;;;2.42;2.10;;;21.90;57.40;;;;;;3112192;28;20073;-82
2021/06/11 07:54:21;;;;;;;2.28;1.92;;;21.80;57.40;;;;;;3111820;28;20050;-81
2021/06/11 07:55:53;;;;;;;2.05;1.95;;;21.90;57.40;;;;;;3112509;28;20133;-82
2021/06/11 07:57:23;;;;;;;2.00;1.85;;;21.90;57.40;;;;;;3110868;28;20046;-83